createdAt,value
2023-05-19T00:01:30.294Z,10.90
2023-05-19T00:04:02.385Z,10.80
2023-05-19T00:06:32.072Z,10.80
2023-05-19T00:09:08.280Z,10.70
2023-05-19T00:11:38.136Z,10.60
2023-05-19T00:14:08.491Z,10.70
2023-05-19T00:16:36.385Z,10.60
2023-05-19T00:19:05.427Z,10.50
2023-05-19T00:21:32.961Z,10.60
2023-05-19T00:24:00.130Z,10.60
2023-05-19T00:26:27.756Z,10.50
2023-05-19T00:28:55.056Z,10.50
2023-05-19T00:31:22.308Z,10.50
2023-05-19T00:33:49.421Z,10.40
2023-05-19T00:36:16.487Z,10.40
2023-05-19T00:38:43.588Z,10.40
2023-05-19T00:41:11.058Z,10.30
2023-05-19T00:43:38.134Z,10.30
2023-05-19T00:46:05.430Z,10.30
2023-05-19T00:48:32.576Z,10.30
2023-05-19T00:51:04.821Z,10.20
2023-05-19T00:53:34.324Z,10.20
2023-05-19T00:56:03.098Z,10.20
2023-05-19T00:58:32.698Z,10.20
2023-05-19T01:01:04.562Z,10.20
2023-05-19T01:03:37.292Z,10.20
2023-05-19T01:06:05.389Z,10.20
2023-05-19T01:08:37.697Z,10.20
2023-05-19T01:11:08.550Z,10.20
2023-05-19T01:13:36.932Z,10.10
2023-05-19T01:16:30.771Z,10.10
2023-05-19T01:19:21.973Z,10.00
2023-05-19T01:22:33.415Z,10.00
2023-05-19T01:25:47.137Z,10.00
2023-05-19T01:29:07.617Z,9.90
2023-05-19T01:31:38.776Z,9.80
2023-05-19T01:34:07.757Z,9.90
2023-05-19T01:36:36.135Z,9.80
2023-05-19T01:39:04.318Z,9.70
2023-05-19T01:41:33.751Z,9.70
2023-05-19T01:44:01.251Z,9.60
2023-05-19T01:46:28.378Z,9.60
2023-05-19T01:48:56.049Z,9.50
2023-05-19T01:51:23.213Z,9.50
2023-05-19T01:53:50.377Z,9.50
2023-05-19T01:56:38.296Z,9.40
2023-05-19T01:59:31.681Z,9.40
2023-05-19T02:02:02.237Z,9.40
2023-05-19T02:04:45.005Z,9.30
2023-05-19T02:07:53.718Z,9.20
2023-05-19T02:10:33.798Z,9.20
2023-05-19T02:13:04.629Z,9.20
2023-05-19T02:15:40.297Z,9.20
2023-05-19T02:18:11.728Z,9.10
2023-05-19T02:20:40.115Z,9.10
2023-05-19T02:23:07.400Z,9.00
2023-05-19T02:25:34.782Z,9.00
2023-05-19T02:28:01.903Z,9.00
2023-05-19T02:30:29.075Z,9.00
2023-05-19T02:32:56.245Z,8.90
2023-05-19T02:35:23.408Z,8.90
2023-05-19T02:37:50.541Z,8.90
2023-05-19T02:40:18.378Z,8.90
2023-05-19T02:42:45.557Z,8.90
2023-05-19T02:45:12.692Z,8.90
2023-05-19T02:47:41.478Z,8.90
2023-05-19T02:50:09.267Z,8.90
2023-05-19T02:52:36.383Z,8.80
2023-05-19T02:55:03.557Z,8.80
2023-05-19T02:57:31.855Z,8.80
2023-05-19T02:59:59.090Z,8.80
2023-05-19T03:02:26.134Z,8.80
2023-05-19T03:04:53.265Z,8.70
2023-05-19T03:07:25.049Z,8.70
2023-05-19T03:09:52.580Z,8.70
2023-05-19T03:12:19.581Z,8.60
2023-05-19T03:14:47.675Z,8.60
2023-05-19T03:17:14.865Z,8.60
2023-05-19T03:19:42.167Z,8.60
2023-05-19T03:22:09.280Z,8.60
2023-05-19T03:24:36.401Z,8.50
2023-05-19T03:27:05.950Z,8.50
2023-05-19T03:29:33.101Z,8.50
2023-05-19T03:32:00.330Z,8.50
2023-05-19T03:34:27.519Z,8.50
2023-05-19T03:36:54.569Z,8.40
2023-05-19T03:39:21.637Z,8.50
2023-05-19T03:41:48.768Z,8.40
2023-05-19T03:44:15.881Z,8.40
2023-05-19T03:46:42.973Z,8.40
2023-05-19T03:49:11.436Z,8.40
2023-05-19T03:51:38.728Z,8.40
2023-05-19T03:54:06.097Z,8.40
2023-05-19T03:56:33.263Z,8.20
2023-05-19T03:59:00.311Z,8.30
2023-05-19T04:01:27.354Z,8.30
2023-05-19T04:03:54.667Z,8.30
2023-05-19T04:06:22.094Z,8.40
2023-05-19T04:08:49.178Z,8.30
2023-05-19T04:11:16.324Z,8.30
2023-05-19T04:13:44.548Z,8.40
2023-05-19T04:16:12.320Z,8.40
2023-05-19T04:18:39.586Z,8.40
2023-05-19T04:21:08.636Z,8.50
2023-05-19T04:23:35.708Z,8.40
2023-05-19T04:26:03.754Z,8.40
2023-05-19T04:28:30.997Z,8.50
2023-05-19T04:30:58.860Z,8.50
2023-05-19T04:33:26.026Z,8.50
2023-05-19T04:35:53.048Z,8.50
2023-05-19T04:38:22.214Z,8.60
2023-05-19T04:40:50.394Z,8.70
2023-05-19T04:43:19.260Z,8.70
2023-05-19T04:45:47.339Z,8.90
2023-05-19T04:48:15.166Z,9.00
2023-05-19T04:50:42.360Z,9.00
2023-05-19T04:53:10.103Z,9.10
2023-05-19T04:55:38.744Z,9.20
2023-05-19T04:58:06.777Z,9.20
2023-05-19T05:00:35.747Z,9.20
2023-05-19T05:03:07.242Z,9.20
2023-05-19T05:05:35.324Z,9.30
2023-05-19T05:08:03.196Z,9.40
2023-05-19T05:10:30.478Z,9.50
2023-05-19T05:12:58.303Z,9.70
2023-05-19T05:15:28.688Z,9.70
2023-05-19T05:17:56.716Z,9.80
2023-05-19T05:20:24.516Z,9.90
2023-05-19T05:22:52.142Z,9.90
2023-05-19T05:25:20.275Z,10.10
2023-05-19T05:27:47.313Z,10.20
2023-05-19T05:30:14.584Z,10.30
2023-05-19T05:32:41.894Z,10.30
2023-05-19T05:35:09.687Z,10.30
2023-05-19T05:37:36.710Z,10.40
2023-05-19T05:40:04.824Z,10.40
2023-05-19T05:42:31.923Z,10.40
2023-05-19T05:44:58.979Z,10.50
2023-05-19T05:47:26.550Z,10.50
2023-05-19T05:49:53.992Z,10.70
2023-05-19T05:52:22.972Z,11.00
2023-05-19T05:54:50.893Z,11.10
2023-05-19T05:57:18.356Z,11.30
2023-05-19T05:59:47.154Z,11.30
2023-05-19T06:02:14.618Z,11.40
2023-05-19T06:04:41.917Z,11.50
2023-05-19T06:07:08.991Z,11.40
2023-05-19T06:09:36.647Z,11.60
2023-05-19T06:12:04.262Z,11.80
2023-05-19T06:14:31.282Z,11.80
2023-05-19T06:16:58.363Z,11.70
2023-05-19T06:19:25.788Z,11.90
2023-05-19T06:21:53.005Z,12.10
2023-05-19T06:24:20.187Z,12.20
2023-05-19T06:26:47.501Z,12.40
2023-05-19T06:29:14.757Z,12.50
2023-05-19T06:31:41.953Z,12.30
2023-05-19T06:34:12.296Z,12.60
2023-05-19T06:36:41.451Z,12.70
2023-05-19T06:39:08.559Z,12.60
2023-05-19T06:41:35.723Z,12.90
2023-05-19T06:44:04.216Z,13.10
2023-05-19T06:46:31.386Z,13.00
2023-05-19T06:48:58.588Z,13.00
2023-05-19T06:51:25.871Z,12.90
2023-05-19T06:53:53.102Z,12.90
2023-05-19T06:56:20.243Z,12.90
2023-05-19T06:58:47.284Z,12.60
2023-05-19T07:01:14.421Z,12.90
2023-05-19T07:03:41.869Z,12.80
2023-05-19T07:06:09.275Z,13.00
2023-05-19T07:08:37.306Z,13.00
2023-05-19T07:11:04.948Z,13.00
2023-05-19T07:13:33.028Z,13.20
2023-05-19T07:16:00.274Z,13.50
2023-05-19T07:18:27.430Z,13.60
2023-05-19T07:20:54.550Z,13.60
2023-05-19T07:23:21.691Z,13.20
2023-05-19T07:25:48.791Z,13.40
2023-05-19T07:28:15.988Z,13.60
2023-05-19T07:30:43.243Z,13.40
2023-05-19T07:33:10.358Z,13.70
2023-05-19T07:35:37.664Z,13.80
2023-05-19T07:38:04.824Z,14.00
2023-05-19T07:40:32.202Z,14.00
2023-05-19T07:42:59.519Z,14.20
2023-05-19T07:45:26.599Z,13.90
2023-05-19T07:47:54.473Z,13.90
2023-05-19T07:50:21.662Z,13.90
2023-05-19T07:52:48.705Z,14.10
2023-05-19T07:55:16.197Z,14.20
2023-05-19T07:57:43.270Z,14.20
2023-05-19T08:00:12.561Z,14.40
2023-05-19T08:02:39.839Z,14.60
2023-05-19T08:05:09.248Z,14.80
2023-05-19T08:07:36.650Z,15.00
2023-05-19T08:10:05.261Z,14.90
2023-05-19T08:12:32.553Z,15.10
2023-05-19T08:15:01.312Z,14.90
2023-05-19T08:17:28.944Z,14.90
2023-05-19T08:19:56.063Z,14.90
2023-05-19T08:22:23.411Z,14.90
2023-05-19T08:24:51.880Z,15.10
2023-05-19T08:27:18.973Z,15.00
2023-05-19T08:29:46.058Z,15.60
2023-05-19T08:32:13.446Z,15.90
2023-05-19T08:34:41.460Z,15.60
2023-05-19T08:37:08.796Z,15.70
2023-05-19T08:39:35.954Z,15.60
2023-05-19T08:42:03.205Z,15.40
2023-05-19T08:44:31.297Z,15.90
2023-05-19T08:47:03.855Z,15.90
2023-05-19T08:49:43.371Z,16.30
2023-05-19T08:52:35.912Z,16.20
2023-05-19T08:55:15.572Z,16.30
2023-05-19T08:57:43.204Z,16.50
2023-05-19T09:00:12.322Z,16.30
2023-05-19T09:02:50.402Z,16.40
2023-05-19T09:05:27.482Z,16.80
2023-05-19T09:07:55.136Z,16.80
2023-05-19T09:10:22.434Z,16.80
2023-05-19T09:12:49.904Z,16.90
2023-05-19T09:15:20.284Z,17.10
2023-05-19T09:17:50.571Z,17.50
2023-05-19T09:20:18.195Z,17.20
2023-05-19T09:22:47.486Z,16.90
2023-05-19T09:25:24.123Z,17.30
2023-05-19T09:27:51.529Z,17.40
2023-05-19T09:30:19.560Z,17.60
2023-05-19T09:32:48.088Z,18.20
2023-05-19T09:35:20.254Z,18.30
2023-05-19T09:37:47.426Z,18.40
2023-05-19T09:40:16.366Z,18.40
2023-05-19T09:42:44.358Z,18.40
2023-05-19T09:45:12.080Z,18.30
2023-05-19T09:47:42.140Z,18.00
2023-05-19T09:50:12.454Z,18.10
2023-05-19T09:52:42.898Z,18.40
2023-05-19T09:55:12.849Z,17.80
2023-05-19T09:57:40.828Z,17.60
2023-05-19T10:00:17.866Z,18.00
2023-05-19T10:02:51.035Z,18.10
2023-05-19T10:05:20.910Z,18.20
2023-05-19T10:07:52.395Z,18.20
2023-05-19T10:10:20.916Z,17.80
2023-05-19T10:12:49.839Z,18.40
2023-05-19T10:15:21.406Z,18.60
2023-05-19T10:17:51.325Z,18.30
2023-05-19T10:20:19.054Z,18.30
2023-05-19T10:22:46.800Z,18.50
2023-05-19T10:25:15.323Z,18.50
2023-05-19T10:28:10.976Z,18.40
2023-05-19T10:30:43.574Z,18.40
2023-05-19T10:33:16.191Z,18.40
2023-05-19T10:36:27.183Z,18.40
2023-05-19T10:39:06.312Z,18.20
2023-05-19T10:41:59.453Z,17.90
2023-05-19T10:45:02.806Z,18.60
2023-05-19T10:47:30.593Z,18.30
2023-05-19T10:50:01.363Z,18.20
2023-05-19T10:52:30.998Z,18.00
2023-05-19T10:54:58.402Z,18.70
2023-05-19T10:57:32.186Z,18.70
2023-05-19T11:00:11.098Z,18.50
2023-05-19T11:02:50.896Z,18.80
2023-05-19T11:05:20.975Z,18.70
2023-05-19T11:08:11.595Z,18.60
2023-05-19T11:10:47.096Z,18.60
2023-05-19T11:13:22.731Z,18.60
2023-05-19T11:15:50.203Z,18.90
2023-05-19T11:18:17.399Z,18.60
2023-05-19T11:20:59.984Z,18.70
2023-05-19T11:23:27.337Z,18.90
2023-05-19T11:25:54.528Z,19.10
2023-05-19T11:28:28.169Z,19.10
2023-05-19T11:31:01.211Z,19.30
2023-05-19T11:33:28.604Z,19.50
2023-05-19T11:36:00.338Z,19.50
2023-05-19T11:38:30.180Z,19.40
2023-05-19T11:40:57.635Z,19.60
2023-05-19T11:43:26.179Z,19.60
2023-05-19T11:45:55.239Z,19.10
2023-05-19T11:48:27.526Z,19.00
2023-05-19T11:50:57.144Z,19.50
2023-05-19T11:53:24.592Z,19.20
2023-05-19T11:55:52.017Z,19.20
2023-05-19T11:58:26.983Z,19.00
2023-05-19T12:00:54.637Z,19.10
2023-05-19T12:03:28.107Z,19.40
2023-05-19T12:05:58.543Z,19.60
2023-05-19T12:08:27.238Z,19.60
2023-05-19T12:10:54.385Z,19.40
2023-05-19T12:13:23.055Z,19.30
2023-05-19T12:15:52.593Z,19.30
2023-05-19T12:18:20.388Z,19.80
2023-05-19T12:20:47.767Z,20.00
2023-05-19T12:23:15.083Z,20.20
2023-05-19T12:25:42.457Z,20.40
2023-05-19T12:28:10.093Z,19.90
2023-05-19T12:30:37.754Z,19.40
2023-05-19T12:33:05.559Z,20.30
2023-05-19T12:35:34.042Z,20.70
2023-05-19T12:38:06.717Z,20.60
2023-05-19T12:40:36.291Z,20.50
2023-05-19T12:43:04.530Z,20.80
2023-05-19T12:45:37.117Z,20.50
2023-05-19T12:48:16.698Z,20.70
2023-05-19T12:50:45.286Z,20.40
2023-05-19T12:53:13.656Z,20.10
2023-05-19T12:55:45.440Z,20.00
2023-05-19T12:58:13.381Z,20.40
2023-05-19T13:00:44.887Z,20.10
2023-05-19T13:03:20.647Z,19.80
2023-05-19T13:05:51.206Z,19.70
2023-05-19T13:08:24.163Z,20.30
2023-05-19T13:10:54.687Z,20.20
2023-05-19T13:13:22.031Z,20.10
2023-05-19T13:15:49.409Z,20.30
2023-05-19T13:18:17.494Z,20.60
2023-05-19T13:20:46.467Z,20.10
2023-05-19T13:23:14.814Z,20.00
2023-05-19T13:25:42.630Z,20.40
2023-05-19T13:28:10.334Z,20.20
2023-05-19T13:30:40.838Z,20.10
2023-05-19T13:33:08.133Z,20.20
2023-05-19T13:35:38.425Z,20.40
2023-05-19T13:38:10.757Z,20.40
2023-05-19T13:40:39.637Z,20.70
2023-05-19T13:43:07.906Z,20.70
2023-05-19T13:45:35.097Z,20.50
2023-05-19T13:48:02.504Z,20.60
2023-05-19T13:50:29.722Z,20.40
2023-05-19T13:52:56.804Z,20.00
2023-05-19T13:55:24.240Z,20.00
2023-05-19T13:57:51.310Z,20.40
2023-05-19T14:00:19.593Z,20.20
2023-05-19T14:02:47.061Z,20.60
2023-05-19T14:05:14.455Z,20.70
2023-05-19T14:07:42.556Z,20.60
2023-05-19T14:10:10.239Z,20.60
2023-05-19T14:12:55.001Z,20.80
2023-05-19T14:15:24.516Z,21.10
2023-05-19T14:17:53.068Z,21.40
2023-05-19T14:20:20.513Z,21.50
2023-05-19T14:22:47.627Z,21.60
2023-05-19T14:25:14.908Z,21.10
2023-05-19T14:27:42.018Z,21.60
2023-05-19T14:30:09.777Z,21.40
2023-05-19T14:32:36.943Z,21.20
2023-05-19T14:35:04.732Z,20.90
2023-05-19T14:37:32.376Z,21.30
2023-05-19T14:39:59.921Z,21.60
2023-05-19T14:42:27.092Z,21.10
2023-05-19T14:44:54.312Z,21.40
2023-05-19T14:47:21.450Z,21.70
2023-05-19T14:49:48.759Z,21.60
2023-05-19T14:52:15.882Z,21.70
2023-05-19T14:54:42.986Z,21.40
2023-05-19T14:57:12.918Z,21.60
2023-05-19T14:59:40.257Z,22.20
2023-05-19T15:02:07.848Z,22.80
2023-05-19T15:04:34.954Z,22.50
2023-05-19T15:09:31.967Z,22.80
2023-05-19T15:12:01.220Z,23.30
2023-05-19T15:14:30.594Z,23.20
2023-05-19T15:16:58.657Z,23.40
2023-05-19T15:19:26.181Z,23.50
2023-05-19T15:21:53.702Z,23.70
2023-05-19T15:24:20.850Z,23.60
2023-05-19T15:26:48.225Z,23.40
2023-05-19T15:29:15.341Z,23.90
2023-05-19T15:31:42.455Z,23.80
2023-05-19T15:34:09.690Z,22.80
2023-05-19T15:36:36.839Z,22.30
2023-05-19T15:39:04.010Z,23.20
2023-05-19T15:41:31.176Z,23.20
2023-05-19T15:44:00.338Z,24.20
2023-05-19T15:46:28.101Z,24.20
2023-05-19T15:48:55.591Z,23.90
2023-05-19T15:51:22.954Z,24.10
2023-05-19T15:53:50.141Z,24.90
2023-05-19T15:56:17.606Z,25.00
2023-05-19T15:58:45.084Z,23.50
2023-05-19T16:01:12.372Z,23.10
2023-05-19T16:03:39.605Z,23.50
2023-05-19T16:06:06.897Z,24.60
2023-05-19T16:08:34.067Z,25.20
2023-05-19T16:11:01.127Z,25.50
2023-05-19T16:13:29.741Z,25.10
2023-05-19T16:15:57.277Z,24.40
2023-05-19T16:18:24.324Z,24.10
2023-05-19T16:20:52.010Z,24.30
2023-05-19T16:23:19.153Z,24.60
2023-05-19T16:25:47.070Z,25.10
2023-05-19T16:28:14.715Z,25.20
2023-05-19T16:30:42.589Z,25.10
2023-05-19T16:33:09.712Z,25.60
2023-05-19T16:35:37.096Z,24.70
2023-05-19T16:38:04.199Z,24.50
2023-05-19T16:40:31.333Z,23.70
2023-05-19T16:42:58.472Z,24.60
2023-05-19T16:45:26.605Z,25.70
2023-05-19T16:47:53.779Z,25.60
2023-05-19T16:50:20.843Z,25.70
2023-05-19T16:52:47.878Z,24.70
2023-05-19T16:55:19.730Z,24.90
2023-05-19T16:57:47.427Z,24.00
2023-05-19T17:00:15.618Z,24.00
2023-05-19T17:02:42.864Z,23.30
2023-05-19T17:05:10.123Z,24.80
2023-05-19T17:07:37.185Z,24.90
2023-05-19T17:10:04.960Z,25.40
2023-05-19T17:12:32.267Z,25.60
2023-05-19T17:14:59.337Z,25.80
2023-05-19T17:17:26.506Z,25.80
2023-05-19T17:19:53.700Z,25.70
2023-05-19T17:22:20.869Z,25.70
2023-05-19T17:24:48.090Z,25.80
2023-05-19T17:27:15.261Z,25.30
2023-05-19T17:29:42.449Z,25.70
2023-05-19T17:32:09.653Z,26.50
2023-05-19T17:34:36.823Z,26.00
2023-05-19T17:37:04.244Z,25.60
2023-05-19T17:39:31.413Z,26.10
2023-05-19T17:41:58.592Z,26.60
2023-05-19T17:44:25.812Z,26.10
2023-05-19T17:46:53.223Z,25.70
2023-05-19T17:49:22.959Z,25.60
2023-05-19T17:51:50.570Z,26.20
2023-05-19T17:54:18.195Z,26.00
2023-05-19T17:56:45.912Z,25.00
2023-05-19T17:59:13.215Z,24.10
2023-05-19T18:01:41.023Z,23.40
2023-05-19T18:04:09.008Z,23.00
2023-05-19T18:06:40.890Z,22.70
2023-05-19T18:09:09.099Z,22.90
2023-05-19T18:11:36.792Z,22.70
2023-05-19T18:14:03.880Z,22.10
2023-05-19T18:16:31.269Z,21.80
2023-05-19T18:18:58.664Z,21.70
2023-05-19T18:21:29.668Z,21.70
2023-05-19T18:23:59.617Z,21.30
2023-05-19T18:26:26.825Z,21.00
2023-05-19T18:28:53.927Z,20.70
2023-05-19T18:31:21.086Z,20.60
2023-05-19T18:33:49.122Z,20.50
2023-05-19T18:36:16.673Z,20.50
2023-05-19T18:38:43.918Z,20.50
2023-05-19T18:41:11.109Z,20.40
2023-05-19T18:43:39.079Z,20.10
2023-05-19T18:46:06.816Z,20.20
2023-05-19T18:48:33.905Z,19.90
2023-05-19T18:51:03.654Z,19.80
2023-05-19T18:53:34.837Z,19.70
2023-05-19T18:56:05.758Z,19.70
2023-05-19T18:58:33.111Z,19.50
2023-05-19T19:01:00.269Z,19.50
2023-05-19T19:03:28.596Z,19.20
2023-05-19T19:05:59.340Z,19.50
2023-05-19T19:08:26.643Z,19.30
2023-05-19T19:10:59.233Z,19.30
2023-05-19T19:13:26.867Z,19.20
2023-05-19T19:15:54.157Z,19.10
2023-05-19T19:18:21.266Z,19.00
2023-05-19T19:20:48.456Z,18.80
2023-05-19T19:23:15.499Z,18.80
2023-05-19T19:25:45.714Z,18.70
2023-05-19T19:28:13.038Z,18.70
2023-05-19T19:30:40.556Z,18.60
2023-05-19T19:33:07.732Z,18.40
2023-05-19T19:35:35.059Z,18.40
2023-05-19T19:38:02.400Z,18.40
2023-05-19T19:40:29.711Z,18.40
2023-05-19T19:42:56.849Z,18.20
2023-05-19T19:45:24.074Z,18.10
2023-05-19T19:47:51.756Z,18.10
2023-05-19T19:50:19.008Z,18.10
2023-05-19T19:52:46.251Z,18.00
2023-05-19T19:55:13.682Z,17.90
2023-05-19T19:57:40.782Z,17.90
2023-05-19T20:00:09.330Z,17.80
2023-05-19T20:02:55.361Z,17.70
2023-05-19T20:05:26.922Z,17.80
2023-05-19T20:07:54.011Z,17.80
2023-05-19T20:10:21.036Z,17.60
2023-05-19T20:12:48.211Z,17.50
2023-05-19T20:15:15.614Z,17.50
2023-05-19T20:17:42.832Z,17.50
2023-05-19T20:20:14.108Z,17.30
2023-05-19T20:22:41.238Z,17.20
2023-05-19T20:25:11.548Z,17.20
2023-05-19T20:27:38.600Z,17.10
2023-05-19T20:30:06.625Z,17.10
2023-05-19T20:32:33.810Z,17.00
2023-05-19T20:35:00.902Z,16.90
2023-05-19T20:37:27.929Z,16.80
2023-05-19T20:39:54.982Z,16.70
2023-05-19T20:42:22.166Z,16.60
2023-05-19T20:44:49.209Z,16.70
2023-05-19T20:47:16.291Z,16.60
2023-05-19T20:49:43.407Z,16.60
2023-05-19T20:52:10.849Z,16.60
2023-05-19T20:54:38.255Z,16.60
2023-05-19T20:57:09.138Z,16.50
2023-05-19T20:59:36.559Z,16.40
2023-05-19T21:02:04.452Z,16.50
2023-05-19T21:04:33.046Z,16.30
2023-05-19T21:07:01.181Z,16.20
2023-05-19T21:09:28.285Z,16.20
2023-05-19T21:11:55.487Z,16.10
2023-05-19T21:14:23.090Z,16.10
2023-05-19T21:16:54.354Z,16.10
2023-05-19T21:19:22.093Z,15.90
2023-05-19T21:21:49.592Z,16.00
2023-05-19T21:24:16.803Z,15.90
2023-05-19T21:26:44.084Z,15.80
2023-05-19T21:29:11.206Z,15.80
2023-05-19T21:31:38.508Z,15.80
2023-05-19T21:34:07.575Z,15.80
2023-05-19T21:36:35.348Z,15.70
2023-05-19T21:39:02.622Z,15.70
2023-05-19T21:41:31.230Z,15.60
2023-05-19T21:43:58.382Z,15.60
2023-05-19T21:46:26.653Z,15.70
2023-05-19T21:48:53.734Z,15.60
2023-05-19T21:51:21.257Z,15.60
2023-05-19T21:53:48.236Z,15.40
2023-05-19T21:56:16.415Z,15.40
2023-05-19T21:58:43.463Z,15.50
2023-05-19T22:01:10.577Z,15.40
2023-05-19T22:03:37.771Z,15.30
2023-05-19T22:06:06.556Z,15.20
2023-05-19T22:08:33.693Z,15.30
2023-05-19T22:11:00.779Z,15.20
2023-05-19T22:13:27.786Z,15.20
2023-05-19T22:15:55.109Z,15.10
2023-05-19T22:18:22.464Z,15.10
2023-05-19T22:20:49.561Z,15.00
2023-05-19T22:23:16.691Z,15.00
2023-05-19T22:25:43.899Z,15.00
2023-05-19T22:28:11.018Z,14.90
2023-05-19T22:30:40.949Z,14.90
2023-05-19T22:33:09.465Z,14.90
2023-05-19T22:35:36.892Z,14.90
2023-05-19T22:38:03.915Z,14.80
2023-05-19T22:40:31.149Z,14.70
2023-05-19T22:42:58.220Z,14.80
2023-05-19T22:45:25.589Z,14.80
2023-05-19T22:47:52.764Z,14.70
2023-05-19T22:50:20.126Z,14.60
2023-05-19T22:52:47.361Z,14.60
2023-05-19T22:55:14.493Z,14.60
2023-05-19T22:57:41.515Z,14.50
2023-05-19T23:00:09.732Z,14.60
2023-05-19T23:02:37.006Z,14.50
2023-05-19T23:05:04.426Z,14.50
2023-05-19T23:07:31.487Z,14.40
2023-05-19T23:09:58.581Z,14.40
2023-05-19T23:12:25.937Z,14.40
2023-05-19T23:14:53.433Z,14.40
2023-05-19T23:17:20.440Z,14.40
2023-05-19T23:19:47.499Z,14.40
2023-05-19T23:22:14.597Z,14.40
2023-05-19T23:24:41.606Z,14.30
2023-05-19T23:27:08.688Z,14.20
2023-05-19T23:29:35.932Z,14.20
2023-05-19T23:32:03.206Z,14.20
2023-05-19T23:34:30.224Z,14.20
2023-05-19T23:36:57.259Z,14.10
2023-05-19T23:39:25.477Z,14.10
2023-05-19T23:41:52.688Z,14.10
2023-05-19T23:44:19.739Z,14.00
2023-05-19T23:46:46.822Z,14.00
2023-05-19T23:49:14.629Z,14.00
2023-05-19T23:51:41.693Z,13.90
2023-05-19T23:54:08.701Z,14.00
2023-05-19T23:56:35.779Z,14.00
2023-05-19T23:59:02.856Z,13.80
